sensor_id;sensor_type;location;lat;lon;timestamp;pressure;altitude;pressure_sealevel;temperature;humidity
4085;BME280;2057;50.858;6.572;2022-10-12T00:01:22;101240.53;;;6.09;100.00
4085;BME280;2057;50.858;6.572;2022-10-12T00:03:51;101240.56;;;5.78;100.00
4085;BME280;2057;50.858;6.572;2022-10-12T00:06:21;101247.91;;;5.64;100.00
4085;BME280;2057;50.858;6.572;2022-10-12T00:08:48;101240.44;;;5.76;100.00
4085;BME280;2057;50.858;6.572;2022-10-12T00:11:20;101253.69;;;5.84;100.00
4085;BME280;2057;50.858;6.572;2022-10-12T00:13:46;101248.84;;;5.97;100.00
4085;BME280;2057;50.858;6.572;2022-10-12T00:16:13;101248.00;;;5.87;100.00
4085;BME280;2057;50.858;6.572;2022-10-12T00:18:39;101248.38;;;5.91;100.00
4085;BME280;2057;50.858;6.572;2022-10-12T00:21:13;101243.06;;;6.09;100.00
4085;BME280;2057;50.858;6.572;2022-10-12T00:23:38;101241.78;;;6.14;100.00
4085;BME280;2057;50.858;6.572;2022-10-12T00:26:08;101239.94;;;6.34;100.00
4085;BME280;2057;50.858;6.572;2022-10-12T00:28:35;101237.91;;;6.40;100.00
4085;BME280;2057;50.858;6.572;2022-10-12T00:31:05;101236.69;;;6.35;100.00
4085;BME280;2057;50.858;6.572;2022-10-12T00:33:30;101232.97;;;6.19;100.00
4085;BME280;2057;50.858;6.572;2022-10-12T00:35:55;101234.44;;;6.27;100.00
4085;BME280;2057;50.858;6.572;2022-10-12T00:38:21;101235.91;;;6.36;100.00
4085;BME280;2057;50.858;6.572;2022-10-12T00:40:47;101242.13;;;6.29;100.00
4085;BME280;2057;50.858;6.572;2022-10-12T00:43:25;101237.19;;;6.31;100.00
4085;BME280;2057;50.858;6.572;2022-10-12T00:45:52;101236.72;;;6.24;100.00
4085;BME280;2057;50.858;6.572;2022-10-12T00:48:17;101233.53;;;6.27;100.00
4085;BME280;2057;50.858;6.572;2022-10-12T00:50:43;101233.56;;;6.17;100.00
4085;BME280;2057;50.858;6.572;2022-10-12T00:53:11;101233.75;;;6.08;100.00
4085;BME280;2057;50.858;6.572;2022-10-12T00:55:43;101236.06;;;6.27;100.00
4085;BME280;2057;50.858;6.572;2022-10-12T00:58:12;101239.00;;;6.43;100.00
4085;BME280;2057;50.858;6.572;2022-10-12T01:00:38;101241.44;;;6.42;100.00
4085;BME280;2057;50.858;6.572;2022-10-12T01:03:07;101245.47;;;6.40;100.00
4085;BME280;2057;50.858;6.572;2022-10-12T01:05:34;101241.91;;;6.48;100.00
4085;BME280;2057;50.858;6.572;2022-10-12T01:07:59;101247.78;;;6.37;100.00
4085;BME280;2057;50.858;6.572;2022-10-12T01:10:26;101240.38;;;6.18;100.00
4085;BME280;2057;50.858;6.572;2022-10-12T01:12:52;101245.19;;;6.15;100.00
4085;BME280;2057;50.858;6.572;2022-10-12T01:15:17;101245.59;;;6.09;100.00
4085;BME280;2057;50.858;6.572;2022-10-12T01:20:44;101237.13;;;6.08;100.00
4085;BME280;2057;50.858;6.572;2022-10-12T01:26:08;101233.34;;;6.14;100.00
4085;BME280;2057;50.858;6.572;2022-10-12T01:34:09;101220.50;;;6.00;100.00
4085;BME280;2057;50.858;6.572;2022-10-12T01:36:40;101222.31;;;5.80;100.00
4085;BME280;2057;50.858;6.572;2022-10-12T01:41:46;101227.22;;;5.79;100.00
4085;BME280;2057;50.858;6.572;2022-10-12T01:44:21;101225.22;;;5.75;100.00
4085;BME280;2057;50.858;6.572;2022-10-12T01:46:47;101220.94;;;5.74;100.00
4085;BME280;2057;50.858;6.572;2022-10-12T01:49:15;101219.19;;;5.62;100.00
4085;BME280;2057;50.858;6.572;2022-10-12T01:52:14;101218.69;;;5.67;100.00
4085;BME280;2057;50.858;6.572;2022-10-12T01:55:22;101217.78;;;5.66;100.00
4085;BME280;2057;50.858;6.572;2022-10-12T02:01:35;101209.38;;;5.45;100.00
4085;BME280;2057;50.858;6.572;2022-10-12T02:03:50;101218.31;;;5.41;100.00
4085;BME280;2057;50.858;6.572;2022-10-12T02:06:22;101216.44;;;5.39;100.00
4085;BME280;2057;50.858;6.572;2022-10-12T02:09:03;101219.72;;;5.48;100.00
4085;BME280;2057;50.858;6.572;2022-10-12T02:11:33;101208.09;;;5.60;100.00
4085;BME280;2057;50.858;6.572;2022-10-12T02:14:11;101205.22;;;5.56;100.00
4085;BME280;2057;50.858;6.572;2022-10-12T02:16:46;101205.34;;;5.57;100.00
4085;BME280;2057;50.858;6.572;2022-10-12T02:19:18;101207.06;;;5.69;100.00
4085;BME280;2057;50.858;6.572;2022-10-12T02:21:46;101206.56;;;5.83;100.00
4085;BME280;2057;50.858;6.572;2022-10-12T02:24:13;101196.88;;;5.67;100.00
4085;BME280;2057;50.858;6.572;2022-10-12T02:26:41;101198.25;;;5.74;100.00
4085;BME280;2057;50.858;6.572;2022-10-12T02:29:12;101194.63;;;5.70;100.00
4085;BME280;2057;50.858;6.572;2022-10-12T02:34:27;101185.38;;;5.81;100.00
4085;BME280;2057;50.858;6.572;2022-10-12T02:37:07;101185.13;;;5.88;100.00
4085;BME280;2057;50.858;6.572;2022-10-12T02:39:40;101175.03;;;5.88;100.00
4085;BME280;2057;50.858;6.572;2022-10-12T02:42:17;101178.84;;;5.83;100.00
4085;BME280;2057;50.858;6.572;2022-10-12T02:44:45;101178.56;;;5.90;100.00
4085;BME280;2057;50.858;6.572;2022-10-12T02:47:13;101183.34;;;5.87;100.00
4085;BME280;2057;50.858;6.572;2022-10-12T02:49:41;101179.94;;;5.97;100.00
4085;BME280;2057;50.858;6.572;2022-10-12T02:52:10;101171.41;;;5.74;100.00
4085;BME280;2057;50.858;6.572;2022-10-12T02:54:36;101169.53;;;5.82;100.00
4085;BME280;2057;50.858;6.572;2022-10-12T02:57:01;101165.34;;;5.82;100.00
4085;BME280;2057;50.858;6.572;2022-10-12T02:59:27;101164.13;;;5.67;100.00
4085;BME280;2057;50.858;6.572;2022-10-12T03:01:53;101169.56;;;5.61;100.00
4085;BME280;2057;50.858;6.572;2022-10-12T03:04:18;101174.59;;;5.61;100.00
4085;BME280;2057;50.858;6.572;2022-10-12T03:06:44;101174.00;;;5.43;100.00
4085;BME280;2057;50.858;6.572;2022-10-12T03:09:09;101166.47;;;5.33;100.00
4085;BME280;2057;50.858;6.572;2022-10-12T03:11:34;101170.75;;;5.24;100.00
4085;BME280;2057;50.858;6.572;2022-10-12T03:14:02;101170.25;;;5.17;100.00
4085;BME280;2057;50.858;6.572;2022-10-12T03:16:30;101164.59;;;5.10;100.00
4085;BME280;2057;50.858;6.572;2022-10-12T03:18:56;101162.19;;;4.91;100.00
4085;BME280;2057;50.858;6.572;2022-10-12T03:21:21;101162.56;;;4.85;100.00
4085;BME280;2057;50.858;6.572;2022-10-12T03:23:46;101154.53;;;4.79;100.00
4085;BME280;2057;50.858;6.572;2022-10-12T03:26:12;101153.13;;;4.82;100.00
4085;BME280;2057;50.858;6.572;2022-10-12T03:28:37;101143.94;;;4.72;100.00
4085;BME280;2057;50.858;6.572;2022-10-12T03:31:03;101145.22;;;4.78;100.00
4085;BME280;2057;50.858;6.572;2022-10-12T03:33:28;101151.00;;;4.77;100.00
4085;BME280;2057;50.858;6.572;2022-10-12T03:35:53;101147.22;;;4.82;100.00
4085;BME280;2057;50.858;6.572;2022-10-12T03:38:19;101150.72;;;4.74;100.00
4085;BME280;2057;50.858;6.572;2022-10-12T03:40:45;101152.13;;;4.91;100.00
4085;BME280;2057;50.858;6.572;2022-10-12T03:43:11;101152.34;;;4.63;100.00
4085;BME280;2057;50.858;6.572;2022-10-12T03:45:37;101158.78;;;4.69;100.00
4085;BME280;2057;50.858;6.572;2022-10-12T03:48:03;101157.63;;;4.55;100.00
4085;BME280;2057;50.858;6.572;2022-10-12T03:50:29;101159.22;;;4.34;100.00
4085;BME280;2057;50.858;6.572;2022-10-12T03:52:54;101160.63;;;4.41;100.00
4085;BME280;2057;50.858;6.572;2022-10-12T03:55:19;101150.94;;;4.46;100.00
4085;BME280;2057;50.858;6.572;2022-10-12T03:57:45;101151.56;;;4.43;100.00
4085;BME280;2057;50.858;6.572;2022-10-12T04:00:11;101151.16;;;4.38;100.00
4085;BME280;2057;50.858;6.572;2022-10-12T04:02:37;101146.31;;;4.50;100.00
4085;BME280;2057;50.858;6.572;2022-10-12T04:05:04;101147.41;;;4.44;100.00
4085;BME280;2057;50.858;6.572;2022-10-12T04:07:29;101148.44;;;4.46;100.00
4085;BME280;2057;50.858;6.572;2022-10-12T04:09:55;101148.03;;;4.51;100.00
4085;BME280;2057;50.858;6.572;2022-10-12T04:12:20;101157.28;;;4.71;100.00
4085;BME280;2057;50.858;6.572;2022-10-12T04:14:48;101142.66;;;4.57;100.00
4085;BME280;2057;50.858;6.572;2022-10-12T04:17:14;101141.88;;;4.48;100.00
4085;BME280;2057;50.858;6.572;2022-10-12T04:19:40;101144.41;;;4.48;100.00
4085;BME280;2057;50.858;6.572;2022-10-12T04:22:05;101139.91;;;4.64;100.00
4085;BME280;2057;50.858;6.572;2022-10-12T04:24:33;101144.19;;;4.76;100.00
4085;BME280;2057;50.858;6.572;2022-10-12T04:26:59;101149.88;;;4.94;100.00
4085;BME280;2057;50.858;6.572;2022-10-12T04:29:24;101145.97;;;4.97;100.00
4085;BME280;2057;50.858;6.572;2022-10-12T04:31:49;101145.31;;;4.79;100.00
4085;BME280;2057;50.858;6.572;2022-10-12T04:34:15;101144.56;;;4.80;100.00
4085;BME280;2057;50.858;6.572;2022-10-12T04:36:40;101142.06;;;4.80;100.00
4085;BME280;2057;50.858;6.572;2022-10-12T04:39:08;101144.59;;;4.91;100.00
4085;BME280;2057;50.858;6.572;2022-10-12T04:41:33;101144.81;;;5.04;100.00
4085;BME280;2057;50.858;6.572;2022-10-12T04:43:59;101138.03;;;4.82;100.00
4085;BME280;2057;50.858;6.572;2022-10-12T04:46:24;101143.47;;;4.87;100.00
4085;BME280;2057;50.858;6.572;2022-10-12T04:48:49;101150.25;;;4.88;100.00
4085;BME280;2057;50.858;6.572;2022-10-12T04:51:15;101154.50;;;4.99;100.00
4085;BME280;2057;50.858;6.572;2022-10-12T04:53:40;101134.28;;;5.08;100.00
4085;BME280;2057;50.858;6.572;2022-10-12T04:56:06;101141.19;;;5.00;100.00
4085;BME280;2057;50.858;6.572;2022-10-12T04:58:32;101138.19;;;5.05;100.00
4085;BME280;2057;50.858;6.572;2022-10-12T05:00:57;101136.41;;;5.03;100.00
4085;BME280;2057;50.858;6.572;2022-10-12T05:03:23;101133.63;;;4.90;100.00
4085;BME280;2057;50.858;6.572;2022-10-12T05:05:49;101133.41;;;4.97;100.00
4085;BME280;2057;50.858;6.572;2022-10-12T05:08:15;101129.13;;;4.96;100.00
4085;BME280;2057;50.858;6.572;2022-10-12T05:10:40;101135.16;;;4.98;100.00
4085;BME280;2057;50.858;6.572;2022-10-12T05:13:05;101128.34;;;5.08;100.00
4085;BME280;2057;50.858;6.572;2022-10-12T05:15:31;101128.38;;;4.87;100.00
4085;BME280;2057;50.858;6.572;2022-10-12T05:17:56;101123.34;;;4.97;100.00
4085;BME280;2057;50.858;6.572;2022-10-12T05:20:22;101122.06;;;5.02;100.00
4085;BME280;2057;50.858;6.572;2022-10-12T05:22:47;101111.44;;;5.38;100.00
4085;BME280;2057;50.858;6.572;2022-10-12T05:25:13;101118.34;;;5.93;99.58
4085;BME280;2057;50.858;6.572;2022-10-12T05:27:38;101125.19;;;5.74;98.25
4085;BME280;2057;50.858;6.572;2022-10-12T05:30:05;101132.69;;;5.52;99.04
4085;BME280;2057;50.858;6.572;2022-10-12T05:32:33;101129.84;;;5.26;100.00
4085;BME280;2057;50.858;6.572;2022-10-12T05:34:58;101122.94;;;5.13;100.00
4085;BME280;2057;50.858;6.572;2022-10-12T05:37:24;101131.75;;;5.08;100.00
4085;BME280;2057;50.858;6.572;2022-10-12T05:39:49;101122.31;;;5.06;100.00
4085;BME280;2057;50.858;6.572;2022-10-12T05:42:15;101121.03;;;5.00;99.49
4085;BME280;2057;50.858;6.572;2022-10-12T05:44:43;101123.94;;;5.05;100.00
4085;BME280;2057;50.858;6.572;2022-10-12T05:47:09;101128.38;;;4.97;100.00
4085;BME280;2057;50.858;6.572;2022-10-12T05:49:34;101132.38;;;4.95;100.00
4085;BME280;2057;50.858;6.572;2022-10-12T05:51:59;101133.88;;;4.83;100.00
4085;BME280;2057;50.858;6.572;2022-10-12T05:54:25;101135.63;;;4.74;100.00
4085;BME280;2057;50.858;6.572;2022-10-12T05:56:50;101133.50;;;4.78;100.00
4085;BME280;2057;50.858;6.572;2022-10-12T05:59:15;101132.13;;;4.82;100.00
4085;BME280;2057;50.858;6.572;2022-10-12T06:01:41;101136.53;;;4.95;100.00
4085;BME280;2057;50.858;6.572;2022-10-12T06:04:06;101132.38;;;4.95;100.00
4085;BME280;2057;50.858;6.572;2022-10-12T06:06:32;101128.09;;;5.05;100.00
4085;BME280;2057;50.858;6.572;2022-10-12T06:08:57;101124.19;;;4.87;100.00
4085;BME280;2057;50.858;6.572;2022-10-12T06:11:22;101119.53;;;4.82;99.59
4085;BME280;2057;50.858;6.572;2022-10-12T06:13:48;101125.09;;;4.78;100.00
4085;BME280;2057;50.858;6.572;2022-10-12T06:16:13;101118.16;;;4.75;100.00
4085;BME280;2057;50.858;6.572;2022-10-12T06:18:38;101116.78;;;4.89;100.00
4085;BME280;2057;50.858;6.572;2022-10-12T06:21:04;101118.19;;;4.85;100.00
4085;BME280;2057;50.858;6.572;2022-10-12T06:23:29;101120.41;;;5.03;100.00
4085;BME280;2057;50.858;6.572;2022-10-12T06:25:54;101120.28;;;4.91;100.00
4085;BME280;2057;50.858;6.572;2022-10-12T06:28:20;101126.59;;;4.96;100.00
4085;BME280;2057;50.858;6.572;2022-10-12T06:30:52;101125.31;;;4.91;100.00
4085;BME280;2057;50.858;6.572;2022-10-12T06:33:17;101132.50;;;4.86;100.00
4085;BME280;2057;50.858;6.572;2022-10-12T06:35:43;101137.16;;;4.92;100.00
4085;BME280;2057;50.858;6.572;2022-10-12T06:38:08;101137.91;;;5.22;100.00
4085;BME280;2057;50.858;6.572;2022-10-12T06:40:36;101134.53;;;5.11;100.00
4085;BME280;2057;50.858;6.572;2022-10-12T06:43:03;101136.53;;;5.15;100.00
4085;BME280;2057;50.858;6.572;2022-10-12T06:45:29;101135.88;;;5.18;100.00
4085;BME280;2057;50.858;6.572;2022-10-12T06:47:55;101133.13;;;5.05;100.00
4085;BME280;2057;50.858;6.572;2022-10-12T06:50:20;101135.25;;;5.21;100.00
4085;BME280;2057;50.858;6.572;2022-10-12T06:52:46;101128.22;;;5.06;100.00
4085;BME280;2057;50.858;6.572;2022-10-12T06:55:11;101130.38;;;5.12;100.00
4085;BME280;2057;50.858;6.572;2022-10-12T06:57:37;101134.38;;;5.20;100.00
4085;BME280;2057;50.858;6.572;2022-10-12T07:00:04;101131.09;;;5.31;100.00
4085;BME280;2057;50.858;6.572;2022-10-12T07:02:30;101132.34;;;5.37;100.00
4085;BME280;2057;50.858;6.572;2022-10-12T07:04:56;101127.56;;;5.29;100.00
4085;BME280;2057;50.858;6.572;2022-10-12T07:07:21;101129.72;;;5.25;100.00
4085;BME280;2057;50.858;6.572;2022-10-12T07:09:47;101139.16;;;5.27;100.00
4085;BME280;2057;50.858;6.572;2022-10-12T07:12:13;101145.94;;;5.28;100.00
4085;BME280;2057;50.858;6.572;2022-10-12T07:14:38;101133.09;;;5.25;100.00
4085;BME280;2057;50.858;6.572;2022-10-12T07:17:03;101128.81;;;5.34;100.00
4085;BME280;2057;50.858;6.572;2022-10-12T07:19:29;101130.84;;;5.39;100.00
4085;BME280;2057;50.858;6.572;2022-10-12T07:21:54;101126.53;;;5.48;100.00
4085;BME280;2057;50.858;6.572;2022-10-12T07:24:19;101125.50;;;5.56;100.00
4085;BME280;2057;50.858;6.572;2022-10-12T07:26:45;101128.97;;;5.69;100.00
4085;BME280;2057;50.858;6.572;2022-10-12T07:29:10;101132.50;;;5.71;100.00
4085;BME280;2057;50.858;6.572;2022-10-12T07:31:36;101132.78;;;5.63;100.00
4085;BME280;2057;50.858;6.572;2022-10-12T07:34:01;101127.00;;;5.64;100.00
4085;BME280;2057;50.858;6.572;2022-10-12T07:36:26;101134.16;;;5.70;100.00
4085;BME280;2057;50.858;6.572;2022-10-12T07:38:52;101133.31;;;5.92;100.00
4085;BME280;2057;50.858;6.572;2022-10-12T07:41:18;101129.63;;;5.99;100.00
4085;BME280;2057;50.858;6.572;2022-10-12T07:43:43;101130.75;;;6.12;100.00
4085;BME280;2057;50.858;6.572;2022-10-12T07:46:09;101135.09;;;6.25;100.00
4085;BME280;2057;50.858;6.572;2022-10-12T07:48:34;101143.31;;;6.45;100.00
4085;BME280;2057;50.858;6.572;2022-10-12T07:51:04;101147.25;;;6.41;100.00
4085;BME280;2057;50.858;6.572;2022-10-12T07:53:29;101142.63;;;6.70;100.00
4085;BME280;2057;50.858;6.572;2022-10-12T07:56:02;101147.75;;;6.59;100.00
4085;BME280;2057;50.858;6.572;2022-10-12T07:58:28;101147.38;;;6.77;100.00
4085;BME280;2057;50.858;6.572;2022-10-12T08:00:54;101141.84;;;6.93;100.00
4085;BME280;2057;50.858;6.572;2022-10-12T08:03:20;101154.00;;;6.99;100.00
4085;BME280;2057;50.858;6.572;2022-10-12T08:05:45;101149.78;;;7.21;100.00
4085;BME280;2057;50.858;6.572;2022-10-12T08:08:10;101143.00;;;7.32;100.00
4085;BME280;2057;50.858;6.572;2022-10-12T08:10:36;101143.41;;;7.27;100.00
4085;BME280;2057;50.858;6.572;2022-10-12T08:13:02;101139.03;;;7.36;100.00
4085;BME280;2057;50.858;6.572;2022-10-12T08:15:28;101141.81;;;7.51;100.00
4085;BME280;2057;50.858;6.572;2022-10-12T08:17:53;101143.75;;;7.55;100.00
4085;BME280;2057;50.858;6.572;2022-10-12T08:20:18;101143.31;;;7.61;100.00
4085;BME280;2057;50.858;6.572;2022-10-12T08:22:44;101138.59;;;7.65;100.00
4085;BME280;2057;50.858;6.572;2022-10-12T08:25:09;101135.09;;;7.75;100.00
4085;BME280;2057;50.858;6.572;2022-10-12T08:27:35;101142.53;;;7.85;100.00
4085;BME280;2057;50.858;6.572;2022-10-12T08:30:06;101133.06;;;7.95;100.00
4085;BME280;2057;50.858;6.572;2022-10-12T08:32:32;101127.38;;;7.97;100.00
4085;BME280;2057;50.858;6.572;2022-10-12T08:34:57;101131.75;;;8.12;100.00
4085;BME280;2057;50.858;6.572;2022-10-12T08:37:25;101133.38;;;8.11;100.00
4085;BME280;2057;50.858;6.572;2022-10-12T08:39:53;101142.59;;;8.23;100.00
4085;BME280;2057;50.858;6.572;2022-10-12T08:45:08;101138.88;;;8.43;100.00
4085;BME280;2057;50.858;6.572;2022-10-12T08:47:54;101138.47;;;8.48;100.00
4085;BME280;2057;50.858;6.572;2022-10-12T08:50:30;101135.72;;;8.71;100.00
4085;BME280;2057;50.858;6.572;2022-10-12T08:53:15;101133.06;;;8.94;100.00
4085;BME280;2057;50.858;6.572;2022-10-12T08:55:44;101120.31;;;9.06;100.00
4085;BME280;2057;50.858;6.572;2022-10-12T08:58:18;101124.91;;;9.12;100.00
4085;BME280;2057;50.858;6.572;2022-10-12T09:00:54;101122.59;;;9.15;100.00
4085;BME280;2057;50.858;6.572;2022-10-12T09:06:21;101126.22;;;9.46;100.00
4085;BME280;2057;50.858;6.572;2022-10-12T09:12:00;101126.22;;;9.59;100.00
4085;BME280;2057;50.858;6.572;2022-10-12T09:14:33;101126.22;;;9.72;100.00
4085;BME280;2057;50.858;6.572;2022-10-12T09:17:01;101132.84;;;9.84;100.00
4085;BME280;2057;50.858;6.572;2022-10-12T09:19:37;101131.25;;;9.99;99.06
4085;BME280;2057;50.858;6.572;2022-10-12T09:22:13;101131.97;;;9.97;98.42
4085;BME280;2057;50.858;6.572;2022-10-12T09:24:42;101140.03;;;10.04;98.38
4085;BME280;2057;50.858;6.572;2022-10-12T09:27:17;101135.88;;;10.20;97.68
4085;BME280;2057;50.858;6.572;2022-10-12T09:29:56;101141.72;;;10.32;97.81
4085;BME280;2057;50.858;6.572;2022-10-12T09:35:10;101136.56;;;10.59;96.50
4085;BME280;2057;50.858;6.572;2022-10-12T09:37:36;101137.56;;;10.61;95.46
4085;BME280;2057;50.858;6.572;2022-10-12T09:40:03;101136.06;;;10.65;94.89
4085;BME280;2057;50.858;6.572;2022-10-12T09:42:30;101132.81;;;10.67;95.12
4085;BME280;2057;50.858;6.572;2022-10-12T09:45:01;101135.78;;;10.75;95.48
4085;BME280;2057;50.858;6.572;2022-10-12T09:47:29;101130.41;;;10.84;95.11
4085;BME280;2057;50.858;6.572;2022-10-12T09:50:00;101132.16;;;11.15;94.52
4085;BME280;2057;50.858;6.572;2022-10-12T09:52:39;101128.22;;;11.20;94.34
4085;BME280;2057;50.858;6.572;2022-10-12T09:57:42;101124.06;;;11.52;91.97
4085;BME280;2057;50.858;6.572;2022-10-12T10:00:24;101120.41;;;11.47;91.93
4085;BME280;2057;50.858;6.572;2022-10-12T10:02:50;101131.69;;;11.52;90.65
4085;BME280;2057;50.858;6.572;2022-10-12T10:07:51;101129.19;;;11.69;88.93
4085;BME280;2057;50.858;6.572;2022-10-12T10:10:22;101128.41;;;11.70;89.47
4085;BME280;2057;50.858;6.572;2022-10-12T10:12:56;101130.75;;;11.82;88.79
4085;BME280;2057;50.858;6.572;2022-10-12T10:15:30;101132.75;;;11.87;88.31
4085;BME280;2057;50.858;6.572;2022-10-12T10:17:59;101136.00;;;11.85;88.81
4085;BME280;2057;50.858;6.572;2022-10-12T10:21:12;101134.25;;;11.84;89.00
4085;BME280;2057;50.858;6.572;2022-10-12T10:23:30;101137.84;;;11.87;88.81
4085;BME280;2057;50.858;6.572;2022-10-12T10:28:31;101133.78;;;12.22;87.82
4085;BME280;2057;50.858;6.572;2022-10-12T10:33:37;101131.56;;;12.45;84.03
4085;BME280;2057;50.858;6.572;2022-10-12T10:36:07;101121.59;;;12.66;83.94
4085;BME280;2057;50.858;6.572;2022-10-12T10:41:15;101118.22;;;12.84;84.09
4085;BME280;2057;50.858;6.572;2022-10-12T10:43:46;101121.09;;;12.90;81.98
4085;BME280;2057;50.858;6.572;2022-10-12T10:46:13;101118.38;;;13.22;81.67
4085;BME280;2057;50.858;6.572;2022-10-12T10:48:51;101119.81;;;13.16;81.31
4085;BME280;2057;50.858;6.572;2022-10-12T10:51:20;101115.91;;;13.41;81.46
4085;BME280;2057;50.858;6.572;2022-10-12T10:53:48;101119.59;;;13.46;80.40
4085;BME280;2057;50.858;6.572;2022-10-12T10:56:23;101117.69;;;13.42;80.82
4085;BME280;2057;50.858;6.572;2022-10-12T10:59:04;101118.41;;;13.58;81.19
4085;BME280;2057;50.858;6.572;2022-10-12T11:01:50;101105.53;;;13.74;79.92
4085;BME280;2057;50.858;6.572;2022-10-12T11:04:34;101111.75;;;13.79;80.99
4085;BME280;2057;50.858;6.572;2022-10-12T11:07:11;101097.25;;;13.78;79.80
4085;BME280;2057;50.858;6.572;2022-10-12T11:09:43;101102.34;;;13.78;81.01
4085;BME280;2057;50.858;6.572;2022-10-12T11:12:16;101092.88;;;13.76;82.23
4085;BME280;2057;50.858;6.572;2022-10-12T11:14:45;101092.06;;;13.96;82.31
4085;BME280;2057;50.858;6.572;2022-10-12T11:17:19;101083.94;;;13.86;83.56
4085;BME280;2057;50.858;6.572;2022-10-12T11:19:52;101090.16;;;13.91;82.86
4085;BME280;2057;50.858;6.572;2022-10-12T11:22:54;101081.41;;;14.05;82.91
4085;BME280;2057;50.858;6.572;2022-10-12T11:25:30;101082.44;;;14.09;81.87
4085;BME280;2057;50.858;6.572;2022-10-12T11:27:57;101080.47;;;14.23;83.77
4085;BME280;2057;50.858;6.572;2022-10-12T11:30:25;101071.06;;;14.22;84.74
4085;BME280;2057;50.858;6.572;2022-10-12T11:32:59;101069.56;;;14.47;85.17
4085;BME280;2057;50.858;6.572;2022-10-12T11:38:07;101061.44;;;14.55;82.89
4085;BME280;2057;50.858;6.572;2022-10-12T11:43:36;101058.78;;;14.73;81.50
4085;BME280;2057;50.858;6.572;2022-10-12T11:46:06;101056.03;;;14.69;80.90
4085;BME280;2057;50.858;6.572;2022-10-12T11:51:27;101052.00;;;14.95;79.31
4085;BME280;2057;50.858;6.572;2022-10-12T11:54:07;101048.19;;;14.85;80.22
4085;BME280;2057;50.858;6.572;2022-10-12T11:56:44;101040.84;;;14.93;79.34
4085;BME280;2057;50.858;6.572;2022-10-12T11:59:17;101037.94;;;15.06;79.71
4085;BME280;2057;50.858;6.572;2022-10-12T12:01:48;101037.63;;;15.20;78.51
4085;BME280;2057;50.858;6.572;2022-10-12T12:04:35;101041.63;;;15.36;77.69
4085;BME280;2057;50.858;6.572;2022-10-12T12:15:38;101038.91;;;15.54;76.83
4085;BME280;2057;50.858;6.572;2022-10-12T12:23:25;101024.59;;;15.36;77.52
4085;BME280;2057;50.858;6.572;2022-10-12T12:26:13;101016.66;;;15.51;76.13
4085;BME280;2057;50.858;6.572;2022-10-12T12:28:41;101011.44;;;15.73;75.04
4085;BME280;2057;50.858;6.572;2022-10-12T12:31:14;101009.88;;;15.76;74.35
4085;BME280;2057;50.858;6.572;2022-10-12T12:33:46;101009.72;;;15.96;73.91
4085;BME280;2057;50.858;6.572;2022-10-12T12:36:15;100993.69;;;16.02;72.85
4085;BME280;2057;50.858;6.572;2022-10-12T12:38:51;100988.38;;;15.95;72.52
4085;BME280;2057;50.858;6.572;2022-10-12T12:41:19;100993.84;;;16.06;73.19
4085;BME280;2057;50.858;6.572;2022-10-12T12:44:00;100992.38;;;16.13;71.30
4085;BME280;2057;50.858;6.572;2022-10-12T12:49:28;100989.72;;;16.36;71.78
4085;BME280;2057;50.858;6.572;2022-10-12T12:52:12;100990.63;;;16.63;70.53
4085;BME280;2057;50.858;6.572;2022-10-12T12:57:40;100986.16;;;16.30;69.89
4085;BME280;2057;50.858;6.572;2022-10-12T13:00:16;100986.81;;;16.00;71.10
4085;BME280;2057;50.858;6.572;2022-10-12T13:06:26;100976.41;;;15.96;69.70
4085;BME280;2057;50.858;6.572;2022-10-12T13:15:06;100961.41;;;16.86;68.04
4085;BME280;2057;50.858;6.572;2022-10-12T13:20:26;100960.44;;;16.82;66.90
4085;BME280;2057;50.858;6.572;2022-10-12T13:22:54;100960.47;;;16.55;68.15
4085;BME280;2057;50.858;6.572;2022-10-12T13:25:42;100948.09;;;16.69;67.53
4085;BME280;2057;50.858;6.572;2022-10-12T13:28:20;100946.97;;;16.89;66.68
4085;BME280;2057;50.858;6.572;2022-10-12T13:31:03;100938.75;;;16.98;65.11
4085;BME280;2057;50.858;6.572;2022-10-12T13:33:53;100928.91;;;17.12;64.94
4085;BME280;2057;50.858;6.572;2022-10-12T13:36:33;100931.50;;;17.14;65.78
4085;BME280;2057;50.858;6.572;2022-10-12T13:39:07;100928.25;;;17.19;64.69
4085;BME280;2057;50.858;6.572;2022-10-12T13:41:37;100917.28;;;17.25;64.68
4085;BME280;2057;50.858;6.572;2022-10-12T13:44:05;100918.41;;;17.35;63.39
4085;BME280;2057;50.858;6.572;2022-10-12T13:46:46;100913.44;;;17.11;65.43
4085;BME280;2057;50.858;6.572;2022-10-12T13:49:20;100922.03;;;17.11;65.66
4085;BME280;2057;50.858;6.572;2022-10-12T13:51:57;100916.13;;;17.15;64.92
4085;BME280;2057;50.858;6.572;2022-10-12T13:56:58;100907.34;;;17.07;64.93
4085;BME280;2057;50.858;6.572;2022-10-12T13:59:26;100906.25;;;16.99;65.03
4085;BME280;2057;50.858;6.572;2022-10-12T14:01:55;100908.00;;;17.00;64.34
4085;BME280;2057;50.858;6.572;2022-10-12T14:04:21;100907.25;;;17.04;63.70
4085;BME280;2057;50.858;6.572;2022-10-12T14:06:54;100910.00;;;17.10;62.50
4085;BME280;2057;50.858;6.572;2022-10-12T14:09:22;100904.09;;;17.13;61.53
4085;BME280;2057;50.858;6.572;2022-10-12T14:11:49;100906.16;;;17.26;61.88
4085;BME280;2057;50.858;6.572;2022-10-12T14:14:26;100904.09;;;17.43;59.84
4085;BME280;2057;50.858;6.572;2022-10-12T14:16:53;100906.03;;;17.84;58.68
4085;BME280;2057;50.858;6.572;2022-10-12T14:22:04;100895.69;;;17.82;62.34
4085;BME280;2057;50.858;6.572;2022-10-12T14:24:31;100890.66;;;17.85;64.77
4085;BME280;2057;50.858;6.572;2022-10-12T14:27:00;100884.00;;;18.27;63.64
4085;BME280;2057;50.858;6.572;2022-10-12T14:29:35;100883.53;;;18.44;61.13
4085;BME280;2057;50.858;6.572;2022-10-12T14:32:52;100882.72;;;18.46;60.06
4085;BME280;2057;50.858;6.572;2022-10-12T14:35:23;100884.72;;;18.22;58.27
4085;BME280;2057;50.858;6.572;2022-10-12T14:37:50;100884.03;;;18.29;57.15
4085;BME280;2057;50.858;6.572;2022-10-12T14:40:26;100877.19;;;18.29;57.99
4085;BME280;2057;50.858;6.572;2022-10-12T14:43:00;100882.47;;;18.36;57.28
4085;BME280;2057;50.858;6.572;2022-10-12T14:45:28;100890.00;;;18.28;55.90
4085;BME280;2057;50.858;6.572;2022-10-12T14:47:55;100880.75;;;18.36;55.48
4085;BME280;2057;50.858;6.572;2022-10-12T14:50:21;100880.38;;;18.57;57.08
4085;BME280;2057;50.858;6.572;2022-10-12T14:52:49;100872.72;;;18.59;55.34